Time;durP1;ratioP1;P1;durP2;ratioP2;P2;SDS_P1;SDS_P2;PMS_P1;PMS_P2;Temp;Humidity;BMP_temperature;BMP_pressure;BME280_temperature;BME280_humidity;BME280_pressure;Samples;Min_cycle;Max_cycle;Signal;HPM_P1;HPM_P2
2021/05/02 00:00:28;;;;;;;3.60;3.30;;;14.00;87.30;;;;;;5091622;28;20197;-74
2021/05/02 00:02:54;;;;;;;3.35;3.05;;;14.00;87.60;;;;;;5095576;28;20225;-75
2021/05/02 00:05:22;;;;;;;4.10;3.70;;;14.00;87.70;;;;;;5090385;28;20630;-75
2021/05/02 00:07:49;;;;;;;2.70;2.50;;;13.90;87.60;;;;;;5094688;28;20818;-75
2021/05/02 00:10:17;;;;;;;2.75;2.55;;;13.90;87.80;;;;;;5091174;28;20197;-75
2021/05/02 00:12:44;;;;;;;3.63;3.10;;;13.90;87.90;;;;;;5100310;28;20820;-76
2021/05/02 00:15:14;;;;;;;3.63;3.33;;;13.90;88.10;;;;;;5090255;28;20193;-76
2021/05/02 00:17:42;;;;;;;4.05;3.75;;;13.80;88.10;;;;;;5091383;28;20194;-76
2021/05/02 00:20:10;;;;;;;3.55;3.25;;;13.90;88.30;;;;;;5091182;28;20197;-74
2021/05/02 00:22:38;;;;;;;3.15;2.88;;;13.80;88.40;;;;;;5093562;28;20216;-74
2021/05/02 00:25:05;;;;;;;3.58;3.10;;;13.80;88.40;;;;;;5090867;28;20237;-74
2021/05/02 00:27:32;;;;;;;3.20;2.90;;;13.80;88.70;;;;;;5091393;28;20197;-74
2021/05/02 00:29:58;;;;;;;3.58;2.75;;;13.80;88.80;;;;;;5091593;28;20198;-74
2021/05/02 00:32:27;;;;;;;3.50;3.20;;;13.80;88.80;;;;;;5101987;28;20205;-74
2021/05/02 00:34:54;;;;;;;3.22;2.95;;;13.70;88.80;;;;;;5091043;28;20197;-76
2021/05/02 00:37:20;;;;;;;3.40;3.10;;;13.80;89.00;;;;;;5092156;28;20204;-76
2021/05/02 00:39:47;;;;;;;4.20;3.80;;;13.70;88.90;;;;;;5093843;28;20197;-77
2021/05/02 00:42:19;;;;;;;3.42;3.13;;;13.70;89.10;;;;;;5092008;28;20224;-77
2021/05/02 00:44:48;;;;;;;3.15;2.85;;;13.70;89.30;;;;;;5091843;28;20211;-76
2021/05/02 00:47:24;;;;;;;3.50;3.20;;;13.70;89.30;;;;;;5090641;28;20255;-77
2021/05/02 00:49:58;;;;;;;4.07;3.67;;;13.70;89.40;;;;;;5090718;28;20188;-75
2021/05/02 00:52:33;;;;;;;4.05;3.05;;;13.60;89.40;;;;;;5090824;28;20569;-74
2021/05/02 00:55:05;;;;;;;3.95;3.53;;;13.60;89.60;;;;;;5088481;28;20556;-76
2021/05/02 00:57:41;;;;;;;5.78;3.80;;;13.60;89.80;;;;;;5100154;28;20200;-75
2021/05/02 01:00:10;;;;;;;3.90;3.60;;;13.60;89.90;;;;;;5090521;28;20667;-75
2021/05/02 01:02:37;;;;;;;3.40;3.10;;;13.60;90.00;;;;;;5093381;28;20270;-74
2021/05/02 01:05:06;;;;;;;4.03;3.72;;;13.60;90.00;;;;;;5101979;28;20216;-74
2021/05/02 01:07:36;;;;;;;3.40;3.10;;;13.60;90.00;;;;;;5094467;28;20198;-74
2021/05/02 01:10:06;;;;;;;3.85;3.55;;;13.50;90.00;;;;;;5092104;28;20687;-74
2021/05/02 01:12:36;;;;;;;3.78;3.50;;;13.50;90.10;;;;;;5091522;28;20245;-74
2021/05/02 01:15:03;;;;;;;4.03;3.47;;;13.50;90.20;;;;;;5095401;28;20192;-74
2021/05/02 01:17:31;;;;;;;4.30;3.60;;;13.50;90.20;;;;;;5110498;28;20204;-74
2021/05/02 01:19:57;;;;;;;3.03;2.72;;;13.50;90.30;;;;;;5091525;28;20617;-74
2021/05/02 01:22:26;;;;;;;4.22;3.85;;;13.50;90.70;;;;;;5090198;28;20282;-75
2021/05/02 01:24:53;;;;;;;3.72;3.42;;;13.50;90.50;;;;;;5090528;28;20228;-75
2021/05/02 01:27:26;;;;;;;3.67;3.35;;;13.40;90.50;;;;;;5096176;28;20201;-75
2021/05/02 01:29:52;;;;;;;3.67;3.38;;;13.40;90.60;;;;;;5095120;28;20198;-74
2021/05/02 01:32:19;;;;;;;4.10;3.78;;;13.40;90.70;;;;;;5094608;28;20569;-75
2021/05/02 01:34:46;;;;;;;4.45;4.10;;;13.40;90.80;;;;;;5106297;28;20197;-74
2021/05/02 01:37:12;;;;;;;4.20;3.90;;;13.30;90.80;;;;;;5112383;28;20197;-75
2021/05/02 01:39:39;;;;;;;4.45;4.15;;;13.30;90.90;;;;;;5105220;28;20186;-75
2021/05/02 01:42:07;;;;;;;4.78;4.38;;;13.30;91.00;;;;;;5098286;28;20209;-76
2021/05/02 01:44:33;;;;;;;4.95;3.70;;;13.30;91.00;;;;;;5113473;28;20197;-76
2021/05/02 01:47:05;;;;;;;3.63;3.33;;;13.30;91.10;;;;;;5104664;28;20197;-76
2021/05/02 01:49:34;;;;;;;3.35;3.05;;;13.20;91.10;;;;;;5094325;28;20193;-76
2021/05/02 01:52:01;;;;;;;4.03;3.70;;;13.20;91.20;;;;;;5109907;28;20201;-76
2021/05/02 01:54:28;;;;;;;4.10;3.80;;;13.20;91.30;;;;;;5107214;28;20801;-76
2021/05/02 01:56:55;;;;;;;4.70;4.30;;;13.20;91.30;;;;;;5093790;28;20208;-76
2021/05/02 01:59:23;;;;;;;3.90;3.60;;;13.20;91.40;;;;;;5093810;28;20743;-76
2021/05/02 02:01:49;;;;;;;5.65;4.07;;;13.10;91.40;;;;;;5108061;28;20279;-75
2021/05/02 02:04:15;;;;;;;3.65;3.35;;;13.20;91.50;;;;;;5111864;28;20237;-75
2021/05/02 02:06:41;;;;;;;4.00;3.60;;;13.10;91.60;;;;;;5103677;28;20207;-74
2021/05/02 02:09:09;;;;;;;4.28;3.90;;;13.10;91.70;;;;;;5114030;28;20197;-74
2021/05/02 02:11:37;;;;;;;5.38;4.50;;;13.10;91.70;;;;;;5113643;28;20189;-74
2021/05/02 02:14:04;;;;;;;6.82;4.13;;;13.10;91.70;;;;;;5095880;28;20197;-75
2021/05/02 02:16:31;;;;;;;4.57;4.18;;;13.00;91.70;;;;;;5098315;28;20196;-74
2021/05/02 02:18:57;;;;;;;4.63;4.22;;;13.00;91.80;;;;;;5112409;28;20197;-75
2021/05/02 02:21:25;;;;;;;4.93;4.50;;;13.00;91.80;;;;;;5104605;28;20277;-75
2021/05/02 02:23:56;;;;;;;4.22;3.83;;;13.00;91.90;;;;;;5093362;28;20603;-75
2021/05/02 02:26:28;;;;;;;4.35;3.95;;;13.00;92.00;;;;;;5110831;28;20541;-75
2021/05/02 02:28:55;;;;;;;4.60;4.20;;;13.00;92.00;;;;;;5113751;28;20258;-75
2021/05/02 02:31:22;;;;;;;4.60;4.20;;;12.90;92.00;;;;;;5105728;28;20205;-75
2021/05/02 02:33:50;;;;;;;4.35;3.95;;;12.90;92.10;;;;;;5113044;28;20189;-75
2021/05/02 02:36:17;;;;;;;4.25;3.85;;;12.90;92.20;;;;;;5110038;28;20205;-75
2021/05/02 02:38:44;;;;;;;5.05;4.07;;;12.90;92.30;;;;;;5093072;28;20954;-74
2021/05/02 02:41:15;;;;;;;5.30;4.68;;;12.90;92.40;;;;;;5092858;28;20266;-75
2021/05/02 02:43:47;;;;;;;4.50;4.10;;;12.80;92.40;;;;;;5092803;28;20316;-74
2021/05/02 02:46:17;;;;;;;4.30;3.90;;;12.80;92.40;;;;;;5093045;28;20205;-74
2021/05/02 02:48:46;;;;;;;4.25;3.95;;;12.80;92.50;;;;;;5096959;28;20196;-74
2021/05/02 02:51:13;;;;;;;5.03;4.18;;;12.80;92.50;;;;;;5112726;28;20249;-74
2021/05/02 02:53:43;;;;;;;4.40;4.00;;;12.80;92.60;;;;;;5094011;28;20296;-74
2021/05/02 02:56:13;;;;;;;3.95;3.53;;;12.80;92.70;;;;;;5095792;28;20209;-74
2021/05/02 02:58:43;;;;;;;3.78;3.47;;;12.80;92.70;;;;;;5096524;28;20193;-73
2021/05/02 03:01:11;;;;;;;4.32;3.95;;;12.70;92.70;;;;;;5105744;28;20185;-74
2021/05/02 03:03:41;;;;;;;4.97;4.43;;;12.70;92.80;;;;;;5092406;28;20267;-74
2021/05/02 03:06:08;;;;;;;4.72;4.30;;;12.70;92.90;;;;;;5104998;28;20655;-74
2021/05/02 03:08:37;;;;;;;5.10;4.10;;;12.70;92.90;;;;;;5112591;28;20204;-74
2021/05/02 03:11:04;;;;;;;4.70;4.30;;;12.70;92.90;;;;;;5111741;28;20201;-75
2021/05/02 03:13:31;;;;;;;4.00;3.70;;;12.70;93.00;;;;;;5100924;28;20200;-75
2021/05/02 03:15:58;;;;;;;5.00;4.60;;;12.60;93.00;;;;;;5092378;28;20557;-76
2021/05/02 03:18:26;;;;;;;4.70;4.30;;;12.60;93.00;;;;;;5108187;28;20200;-76
2021/05/02 03:20:58;;;;;;;6.10;4.10;;;12.60;93.10;;;;;;5094989;28;20223;-77
2021/05/02 03:23:30;;;;;;;4.60;4.20;;;12.60;93.20;;;;;;5092120;28;20286;-75
2021/05/02 03:26:01;;;;;;;4.22;3.88;;;12.60;93.20;;;;;;5105993;28;20544;-75
2021/05/02 03:28:32;;;;;;;3.95;3.65;;;12.60;93.20;;;;;;5098856;28;20215;-77
2021/05/02 03:31:01;;;;;;;4.90;4.50;;;12.60;93.20;;;;;;5093994;28;20190;-77
2021/05/02 03:33:32;;;;;;;4.28;3.97;;;12.60;93.20;;;;;;5091990;28;20281;-75
2021/05/02 03:36:00;;;;;;;3.72;3.42;;;12.50;93.30;;;;;;5092047;28;20576;-76
2021/05/02 03:38:34;;;;;;;4.85;4.45;;;12.50;93.30;;;;;;5092683;28;20212;-75
2021/05/02 03:41:01;;;;;;;4.45;3.95;;;12.50;93.40;;;;;;5103113;28;20572;-75
2021/05/02 03:43:28;;;;;;;4.95;3.83;;;12.50;93.40;;;;;;5092750;28;20217;-75
2021/05/02 03:45:54;;;;;;;4.45;3.95;;;12.50;93.50;;;;;;5091247;28;20213;-75
2021/05/02 03:48:20;;;;;;;4.10;3.80;;;12.50;93.50;;;;;;5092616;28;20220;-74
2021/05/02 03:50:46;;;;;;;4.35;3.97;;;12.50;93.60;;;;;;5098467;28;20200;-74
2021/05/02 03:53:12;;;;;;;4.00;3.60;;;12.50;93.70;;;;;;5106259;28;20197;-74
2021/05/02 03:55:42;;;;;;;4.25;3.95;;;12.40;93.70;;;;;;5091685;28;20202;-74
2021/05/02 03:58:11;;;;;;;4.18;3.50;;;12.40;93.80;;;;;;5092944;28;20205;-75
2021/05/02 04:00:37;;;;;;;3.75;3.45;;;12.40;93.90;;;;;;5111265;28;20181;-75
2021/05/02 04:03:03;;;;;;;3.92;3.63;;;12.40;94.00;;;;;;5101294;28;20224;-74
2021/05/02 04:05:29;;;;;;;3.83;3.53;;;12.40;93.90;;;;;;5093891;28;20200;-75
2021/05/02 04:07:55;;;;;;;3.38;3.08;;;12.40;94.00;;;;;;5110869;28;20200;-73
2021/05/02 04:10:22;;;;;;;4.60;3.50;;;12.40;94.00;;;;;;5105047;28;20221;-74
2021/05/02 04:12:48;;;;;;;3.90;3.60;;;12.30;94.00;;;;;;5091583;28;20202;-74
2021/05/02 04:15:15;;;;;;;4.20;3.80;;;12.30;94.00;;;;;;5092354;28;20208;-75
2021/05/02 04:17:41;;;;;;;3.78;3.38;;;12.30;94.00;;;;;;5091352;28;20201;-75
2021/05/02 04:20:08;;;;;;;3.72;3.42;;;12.30;94.10;;;;;;5093770;28;20252;-75
2021/05/02 04:22:35;;;;;;;5.00;4.03;;;12.30;94.10;;;;;;5092778;28;20213;-75
2021/05/02 04:25:01;;;;;;;3.40;3.10;;;12.30;94.10;;;;;;5090906;28;20225;-76
2021/05/02 04:27:27;;;;;;;7.10;3.40;;;12.30;94.30;;;;;;5090875;28;20279;-75
2021/05/02 04:29:56;;;;;;;4.32;3.92;;;12.30;94.40;;;;;;5090907;28;20197;-75
2021/05/02 04:32:23;;;;;;;3.88;3.58;;;12.20;94.40;;;;;;5095479;28;20197;-76
2021/05/02 04:34:49;;;;;;;3.47;3.13;;;12.20;94.40;;;;;;5101492;28;20205;-77
2021/05/02 04:37:16;;;;;;;3.63;3.33;;;12.20;94.50;;;;;;5092010;28;20202;-75
2021/05/02 04:39:42;;;;;;;3.78;3.22;;;12.20;94.60;;;;;;5093991;28;20303;-74
2021/05/02 04:42:08;;;;;;;3.97;3.58;;;12.10;94.70;;;;;;5091522;28;20190;-74
2021/05/02 04:44:35;;;;;;;3.42;3.10;;;12.10;94.80;;;;;;5111329;28;20216;-74
2021/05/02 04:47:01;;;;;;;4.35;3.95;;;12.10;95.00;;;;;;5110043;28;20205;-75
2021/05/02 04:49:28;;;;;;;3.85;3.55;;;12.10;94.90;;;;;;5111264;28;20636;-74
2021/05/02 04:51:54;;;;;;;3.80;3.50;;;12.10;94.80;;;;;;5094007;28;20203;-75
2021/05/02 04:54:20;;;;;;;3.70;2.88;;;12.10;94.90;;;;;;5104439;28;20193;-75
2021/05/02 04:56:47;;;;;;;2.63;2.42;;;12.10;94.90;;;;;;5110357;28;20205;-75
2021/05/02 04:59:14;;;;;;;3.90;3.30;;;12.10;94.90;;;;;;5092106;28;20295;-75
2021/05/02 05:01:43;;;;;;;3.85;2.90;;;12.10;95.00;;;;;;5094391;28;20193;-75
2021/05/02 05:04:10;;;;;;;3.33;3.05;;;12.10;95.00;;;;;;5108425;28;20224;-74
2021/05/02 05:06:37;;;;;;;3.65;3.35;;;12.10;95.00;;;;;;5104061;28;20201;-74
2021/05/02 05:09:05;;;;;;;4.05;3.65;;;12.10;95.10;;;;;;5111201;28;20197;-75
2021/05/02 05:11:32;;;;;;;3.72;2.80;;;12.10;95.00;;;;;;5094575;28;20202;-75
2021/05/02 05:13:58;;;;;;;3.60;2.90;;;12.00;95.20;;;;;;5104262;28;20332;-75
2021/05/02 05:16:24;;;;;;;3.78;3.20;;;12.00;95.30;;;;;;5095491;28;20197;-75
2021/05/02 05:18:50;;;;;;;5.32;3.70;;;12.00;95.30;;;;;;5100650;28;21639;-74
2021/05/02 05:21:17;;;;;;;3.78;3.35;;;12.00;95.50;;;;;;5100455;28;20208;-75
2021/05/02 05:23:43;;;;;;;3.58;3.28;;;12.00;95.40;;;;;;5094162;28;20241;-75
2021/05/02 05:26:10;;;;;;;4.00;3.67;;;12.00;95.60;;;;;;5094726;28;20197;-75
2021/05/02 05:28:36;;;;;;;3.70;3.45;;;12.00;95.50;;;;;;5094685;28;20209;-75
2021/05/02 05:31:02;;;;;;;5.03;3.47;;;12.00;95.50;;;;;;5097109;28;20193;-76
2021/05/02 05:33:29;;;;;;;3.10;2.78;;;12.00;95.60;;;;;;5097532;28;20193;-75
2021/05/02 05:35:56;;;;;;;3.38;3.08;;;12.00;95.60;;;;;;5094851;28;20205;-76
2021/05/02 05:38:22;;;;;;;5.90;3.75;;;12.00;95.70;;;;;;5100356;28;20240;-76
2021/05/02 05:40:50;;;;;;;4.45;3.60;;;11.90;95.70;;;;;;5094675;28;20251;-76
2021/05/02 05:43:16;;;;;;;6.03;2.90;;;12.00;95.80;;;;;;5094556;28;20218;-75
2021/05/02 05:45:42;;;;;;;3.45;3.10;;;11.90;95.90;;;;;;5097951;28;20198;-76
2021/05/02 05:48:08;;;;;;;4.45;4.05;;;11.90;96.10;;;;;;5104198;28;20197;-75
2021/05/02 05:50:35;;;;;;;2.67;2.45;;;11.90;96.10;;;;;;5099448;28;20197;-75
2021/05/02 05:53:01;;;;;;;3.05;2.75;;;11.90;96.10;;;;;;5108288;28;20619;-75
2021/05/02 05:55:28;;;;;;;4.28;3.03;;;11.90;96.00;;;;;;5094022;28;20656;-76
2021/05/02 05:57:55;;;;;;;3.03;2.42;;;11.90;96.20;;;;;;5093951;28;20205;-75
2021/05/02 06:00:23;;;;;;;3.25;2.90;;;11.90;96.10;;;;;;5093946;28;20198;-76
2021/05/02 06:02:50;;;;;;;4.07;3.00;;;11.80;96.20;;;;;;5101322;28;20221;-77
2021/05/02 06:05:16;;;;;;;7.38;3.22;;;11.80;96.20;;;;;;5113920;28;20208;-76
2021/05/02 06:07:43;;;;;;;3.15;2.85;;;11.80;96.30;;;;;;5113437;28;20232;-76
2021/05/02 06:10:11;;;;;;;3.20;2.90;;;11.80;96.40;;;;;;5106843;28;20208;-76
2021/05/02 06:12:37;;;;;;;4.65;2.65;;;11.80;96.40;;;;;;5112885;28;20204;-75
2021/05/02 06:15:05;;;;;;;3.45;2.72;;;11.80;96.60;;;;;;5107741;28;20193;-76
2021/05/02 06:17:32;;;;;;;2.80;2.40;;;11.70;96.90;;;;;;5107959;28;20207;-77
2021/05/02 06:19:58;;;;;;;5.05;2.35;;;11.70;97.00;;;;;;5113879;28;20197;-77
2021/05/02 06:22:24;;;;;;;2.55;2.20;;;11.70;97.00;;;;;;5113540;28;20584;-76
2021/05/02 06:24:50;;;;;;;3.22;2.22;;;11.70;97.20;;;;;;5112105;28;20232;-74
2021/05/02 06:27:17;;;;;;;2.90;2.30;;;11.70;97.30;;;;;;5108691;28;20190;-75
2021/05/02 06:29:43;;;;;;;2.50;2.08;;;11.70;97.30;;;;;;5093305;28;20526;-74
2021/05/02 06:32:10;;;;;;;2.30;2.10;;;11.70;97.40;;;;;;5093437;28;20212;-75
2021/05/02 06:34:36;;;;;;;2.42;2.22;;;11.70;97.50;;;;;;5093024;28;20212;-76
2021/05/02 06:37:02;;;;;;;2.42;1.98;;;11.70;97.50;;;;;;5093172;28;20206;-75
2021/05/02 06:39:29;;;;;;;4.72;1.70;;;11.70;97.60;;;;;;5093074;28;20198;-75
2021/05/02 06:41:56;;;;;;;2.85;2.00;;;11.80;97.70;;;;;;5093210;28;20202;-74
2021/05/02 06:44:22;;;;;;;2.20;1.90;;;11.70;97.70;;;;;;5105084;28;20209;-75
2021/05/02 06:46:49;;;;;;;4.10;2.10;;;11.70;98.00;;;;;;5113539;28;20200;-76
2021/05/02 06:49:16;;;;;;;2.72;2.03;;;11.70;98.10;;;;;;5110744;28;20214;-76
2021/05/02 06:51:42;;;;;;;2.55;2.35;;;11.70;98.20;;;;;;5092986;28;20212;-77
2021/05/02 06:54:09;;;;;;;1.88;1.75;;;11.70;98.20;;;;;;5092770;28;20210;-77
2021/05/02 06:56:36;;;;;;;5.05;2.33;;;11.70;98.30;;;;;;5107775;28;20226;-77
2021/05/02 06:59:03;;;;;;;3.13;2.17;;;11.70;98.20;;;;;;5098843;28;20198;-76
2021/05/02 07:01:30;;;;;;;3.05;1.60;;;11.80;98.00;;;;;;5094065;28;20197;-76
2021/05/02 07:03:56;;;;;;;4.00;2.20;;;11.80;98.00;;;;;;5092449;28;20223;-76
2021/05/02 07:06:23;;;;;;;3.85;2.30;;;11.80;98.50;;;;;;5099328;28;20547;-76
2021/05/02 07:08:49;;;;;;;3.20;2.22;;;11.80;98.80;;;;;;5113171;28;20197;-76
2021/05/02 07:11:15;;;;;;;2.08;1.88;;;11.80;98.50;;;;;;5094086;28;20197;-76
2021/05/02 07:13:41;;;;;;;2.55;1.85;;;11.90;98.50;;;;;;5092556;28;20209;-82
2021/05/02 07:16:08;;;;;;;4.05;1.90;;;12.00;98.10;;;;;;5107126;28;20600;-77
2021/05/02 07:18:36;;;;;;;2.20;1.75;;;12.10;97.70;;;;;;5091213;28;20281;-77
2021/05/02 07:21:03;;;;;;;3.10;1.60;;;12.20;97.40;;;;;;5093281;28;20205;-78
2021/05/02 07:23:31;;;;;;;1.75;1.55;;;12.20;97.00;;;;;;5092147;28;20233;-77
2021/05/02 07:25:57;;;;;;;3.70;2.05;;;12.30;96.70;;;;;;5093160;28;20205;-78
2021/05/02 07:28:23;;;;;;;2.05;1.75;;;12.30;96.40;;;;;;5092429;28;20205;-79
2021/05/02 07:30:49;;;;;;;2.25;1.90;;;12.40;96.10;;;;;;5092827;28;20205;-79
2021/05/02 07:33:16;;;;;;;1.92;1.50;;;12.50;95.90;;;;;;5092598;28;20658;-78
2021/05/02 07:35:42;;;;;;;4.10;1.85;;;12.50;95.60;;;;;;5092793;28;20189;-77
2021/05/02 07:38:08;;;;;;;2.10;1.63;;;12.70;95.40;;;;;;5093082;28;20263;-79
2021/05/02 07:40:35;;;;;;;3.63;1.58;;;12.80;94.60;;;;;;5101178;28;20193;-78
2021/05/02 07:43:02;;;;;;;2.08;1.40;;;12.80;94.20;;;;;;5092412;28;20224;-78
2021/05/02 07:45:28;;;;;;;4.88;1.30;;;12.80;93.90;;;;;;5092172;28;20198;-78
2021/05/02 07:47:54;;;;;;;1.95;1.13;;;12.80;93.50;;;;;;5091931;28;20641;-78
2021/05/02 07:50:20;;;;;;;2.10;1.25;;;12.90;93.60;;;;;;5094639;28;20637;-78
2021/05/02 07:52:46;;;;;;;2.30;1.77;;;13.00;93.10;;;;;;5088281;28;20236;-78
2021/05/02 07:55:13;;;;;;;2.45;1.40;;;13.00;92.90;;;;;;5092378;28;20216;-78
2021/05/02 07:57:40;;;;;;;1.15;0.98;;;13.00;92.90;;;;;;5097188;28;20212;-78
2021/05/02 08:00:07;;;;;;;1.85;1.58;;;13.10;92.70;;;;;;5092177;28;20568;-78
2021/05/02 08:02:33;;;;;;;1.83;1.50;;;13.20;92.00;;;;;;5092988;28;20194;-77
2021/05/02 08:04:59;;;;;;;2.10;1.65;;;13.10;91.90;;;;;;5109599;28;20212;-79
2021/05/02 08:07:26;;;;;;;1.33;1.10;;;13.10;91.70;;;;;;5095040;28;20205;-79
2021/05/02 08:09:52;;;;;;;3.45;1.85;;;13.10;91.60;;;;;;5101473;28;20189;-79
2021/05/02 08:12:18;;;;;;;3.13;1.50;;;13.00;91.40;;;;;;5092736;28;20193;-79
2021/05/02 08:14:45;;;;;;;2.72;1.52;;;13.00;91.60;;;;;;5090861;28;20194;-79
2021/05/02 08:17:11;;;;;;;1.90;1.38;;;12.90;91.90;;;;;;5108291;28;20216;-79
2021/05/02 08:19:37;;;;;;;1.90;1.40;;;12.90;91.80;;;;;;5110527;28;20192;-79
2021/05/02 08:22:04;;;;;;;1.25;1.13;;;13.00;91.60;;;;;;5103771;28;20212;-78
2021/05/02 08:24:30;;;;;;;1.67;1.50;;;13.20;90.40;;;;;;5090270;28;20248;-79
2021/05/02 08:26:57;;;;;;;1.90;1.02;;;13.30;89.70;;;;;;5103439;28;20536;-79
2021/05/02 08:29:23;;;;;;;2.05;1.40;;;13.30;90.00;;;;;;5110283;28;20517;-79
2021/05/02 08:31:50;;;;;;;1.40;1.30;;;13.30;89.30;;;;;;5098709;28;20197;-79
2021/05/02 08:34:16;;;;;;;2.92;1.60;;;13.40;89.30;;;;;;5093362;28;20182;-79
2021/05/02 08:36:43;;;;;;;1.20;1.10;;;13.50;89.10;;;;;;5101950;28;20200;-79
2021/05/02 08:39:09;;;;;;;1.80;1.20;;;13.60;87.80;;;;;;5095054;28;20210;-79
2021/05/02 08:41:35;;;;;;;2.22;1.13;;;13.70;87.60;;;;;;5108393;28;20204;-79
2021/05/02 08:44:03;;;;;;;3.83;1.40;;;13.70;87.90;;;;;;5112362;28;20223;-79
2021/05/02 08:46:29;;;;;;;1.75;1.30;;;13.50;87.10;;;;;;5105798;28;20195;-79
2021/05/02 08:48:57;;;;;;;1.40;1.30;;;13.40;88.20;;;;;;5107209;28;20232;-78
2021/05/02 08:51:24;;;;;;;4.00;1.48;;;13.40;88.50;;;;;;5103506;28;20204;-79
2021/05/02 08:53:50;;;;;;;1.85;1.30;;;13.30;89.20;;;;;;5099981;28;20190;-80
2021/05/02 08:56:16;;;;;;;3.97;1.30;;;13.20;89.50;;;;;;5102041;28;20201;-79
2021/05/02 08:58:43;;;;;;;1.60;1.20;;;13.10;90.20;;;;;;5101297;28;20216;-79
2021/05/02 09:01:09;;;;;;;4.10;1.65;;;13.20;89.40;;;;;;5096380;28;20340;-79
2021/05/02 09:03:43;;;;;;;6.45;1.70;;;13.40;89.00;;;;;;5110943;28;20270;-79
2021/05/02 09:06:21;;;;;;;1.50;1.23;;;13.50;87.60;;;;;;5110436;28;20197;-79
2021/05/02 09:08:49;;;;;;;1.52;1.38;;;13.50;87.10;;;;;;5089509;28;20220;-79
2021/05/02 09:11:16;;;;;;;3.22;1.60;;;13.50;87.00;;;;;;5089085;28;20193;-79
2021/05/02 09:13:48;;;;;;;3.13;1.65;;;13.30;87.10;;;;;;5095082;28;20194;-79
2021/05/02 09:16:14;;;;;;;3.70;1.15;;;13.20;86.40;;;;;;5097821;28;20197;-79
2021/05/02 09:18:45;;;;;;;2.60;1.55;;;13.20;85.60;;;;;;5092666;28;20310;-79
2021/05/02 09:21:16;;;;;;;3.17;2.20;;;13.20;85.60;;;;;;5097260;28;20541;-79
2021/05/02 09:23:44;;;;;;;1.60;1.00;;;13.40;86.10;;;;;;5102193;28;20271;-79
2021/05/02 09:26:20;;;;;;;1.10;1.00;;;13.50;86.50;;;;;;5096067;28;20199;-79
2021/05/02 09:28:48;;;;;;;1.83;1.23;;;13.60;85.40;;;;;;5089099;28;20197;-79
2021/05/02 09:31:16;;;;;;;1.70;1.50;;;13.60;84.70;;;;;;5088587;28;20630;-79
2021/05/02 09:33:43;;;;;;;1.45;1.30;;;13.60;84.50;;;;;;5100456;28;20198;-79
2021/05/02 09:36:10;;;;;;;3.65;1.70;;;13.70;84.20;;;;;;5093766;28;20204;-81
2021/05/02 09:38:37;;;;;;;2.40;1.45;;;13.70;83.30;;;;;;5096535;28;20202;-78
2021/05/02 09:41:06;;;;;;;1.60;1.20;;;13.80;83.50;;;;;;5107149;28;20197;-78
2021/05/02 09:43:44;;;;;;;1.30;1.20;;;13.80;82.90;;;;;;5094522;28;20287;-77
2021/05/02 09:46:25;;;;;;;2.58;1.30;;;13.90;81.50;;;;;;5101354;28;20193;-78
2021/05/02 09:48:57;;;;;;;4.22;1.33;;;13.90;81.80;;;;;;5113295;28;20195;-78
2021/05/02 09:51:25;;;;;;;1.83;1.10;;;14.00;81.20;;;;;;5104072;28;20738;-77
2021/05/02 09:54:08;;;;;;;1.67;1.27;;;14.00;81.00;;;;;;5107759;28;20195;-78
2021/05/02 09:56:38;;;;;;;2.88;1.35;;;14.00;81.20;;;;;;5111151;28;20189;-77
2021/05/02 09:59:06;;;;;;;4.93;1.60;;;14.10;79.70;;;;;;5107964;28;20208;-78
2021/05/02 10:01:32;;;;;;;2.10;1.00;;;14.10;79.90;;;;;;5092358;28;20198;-76
2021/05/02 10:04:00;;;;;;;4.43;1.40;;;14.10;80.80;;;;;;5098979;28;20223;-76
2021/05/02 10:06:35;;;;;;;1.40;1.30;;;14.00;80.10;;;;;;5110042;28;20513;-77
2021/05/02 10:09:06;;;;;;;1.48;1.27;;;14.00;80.90;;;;;;5105193;28;20643;-76
2021/05/02 10:11:32;;;;;;;1.30;1.00;;;13.90;81.00;;;;;;5096099;28;20491;-79
2021/05/02 10:14:00;;;;;;;3.05;1.42;;;13.90;80.30;;;;;;5103223;28;20247;-77
2021/05/02 10:16:27;;;;;;;2.80;1.52;;;13.80;80.10;;;;;;5109015;28;20221;-76
2021/05/02 10:18:53;;;;;;;1.58;1.48;;;13.80;79.50;;;;;;5100348;28;20185;-76
2021/05/02 10:21:20;;;;;;;2.10;1.40;;;13.80;80.10;;;;;;5103377;28;20196;-75
2021/05/02 10:23:46;;;;;;;1.50;1.35;;;13.80;79.60;;;;;;5095197;28;20241;-76
2021/05/02 10:26:13;;;;;;;1.75;1.23;;;13.80;80.50;;;;;;5092751;28;20201;-77
2021/05/02 10:28:39;;;;;;;2.03;1.25;;;13.70;80.70;;;;;;5103698;28;20745;-79
2021/05/02 10:31:08;;;;;;;4.07;1.25;;;13.70;81.10;;;;;;5102717;28;20197;-77
2021/05/02 10:33:36;;;;;;;1.55;1.35;;;13.80;80.90;;;;;;5112920;28;20201;-77
2021/05/02 10:36:04;;;;;;;5.47;1.70;;;13.80;80.70;;;;;;5107326;28;20244;-75
2021/05/02 10:38:48;;;;;;;2.53;1.33;;;13.80;79.60;;;;;;5092562;28;20618;-75
2021/05/02 10:41:25;;;;;;;1.40;1.30;;;13.80;80.00;;;;;;5101817;28;20550;-77
2021/05/02 10:43:51;;;;;;;1.65;1.25;;;13.80;80.20;;;;;;5102901;28;20285;-80
2021/05/02 10:46:49;;;;;;;1.52;1.23;;;13.80;80.10;;;;;;5093327;28;20197;-79
2021/05/02 10:49:53;;;;;;;1.40;1.17;;;13.80;80.60;;;;;;5093912;28;20603;-74
2021/05/02 10:52:30;;;;;;;1.48;1.25;;;13.80;80.60;;;;;;5091735;28;20636;-74
2021/05/02 10:55:11;;;;;;;1.90;1.40;;;13.80;81.20;;;;;;5092299;28;20208;-74
2021/05/02 10:57:37;;;;;;;1.50;1.23;;;13.80;80.60;;;;;;5092279;28;20221;-73
2021/05/02 11:00:07;;;;;;;1.30;1.20;;;13.90;80.50;;;;;;5098893;28;20200;-74
2021/05/02 11:02:37;;;;;;;2.13;1.52;;;13.90;80.30;;;;;;5090785;28;20254;-74
2021/05/02 11:05:05;;;;;;;1.65;1.55;;;13.90;80.00;;;;;;5090799;28;20216;-74
2021/05/02 11:07:36;;;;;;;2.22;1.30;;;13.90;80.30;;;;;;5093995;28;20208;-74
2021/05/02 11:10:04;;;;;;;1.90;1.65;;;13.90;79.80;;;;;;5098801;28;20205;-74
2021/05/02 11:12:31;;;;;;;1.50;1.38;;;13.90;79.60;;;;;;5097744;28;20193;-74
2021/05/02 11:14:59;;;;;;;3.90;1.40;;;13.90;79.50;;;;;;5095654;28;20193;-72
2021/05/02 11:17:33;;;;;;;2.45;1.50;;;13.90;79.80;;;;;;5092659;28;20420;-72
2021/05/02 11:20:01;;;;;;;2.13;1.30;;;13.90;79.20;;;;;;5104844;28;20203;-72
2021/05/02 11:22:28;;;;;;;2.30;1.10;;;13.90;79.90;;;;;;5098473;28;20196;-73
2021/05/02 11:24:59;;;;;;;2.50;1.42;;;13.90;80.00;;;;;;5094997;28;20217;-72
2021/05/02 11:27:49;;;;;;;1.63;1.00;;;14.00;80.40;;;;;;5109862;28;20193;-74
2021/05/02 11:30:25;;;;;;;2.38;1.48;;;14.00;80.20;;;;;;5100324;28;20641;-74
2021/05/02 11:32:53;;;;;;;1.33;1.00;;;14.00;79.60;;;;;;5094058;28;20291;-72
2021/05/02 11:35:42;;;;;;;1.40;1.30;;;14.10;80.40;;;;;;5095189;28;20216;-72
2021/05/02 11:38:10;;;;;;;2.80;1.38;;;14.00;78.90;;;;;;5099956;28;20193;-72
2021/05/02 11:40:40;;;;;;;2.40;1.52;;;14.10;78.60;;;;;;5107164;28;20293;-72
2021/05/02 11:43:10;;;;;;;1.10;1.00;;;14.10;78.50;;;;;;5091835;28;20205;-74
2021/05/02 11:45:46;;;;;;;1.35;1.25;;;14.10;78.50;;;;;;5095662;28;20225;-75
2021/05/02 11:48:24;;;;;;;1.10;1.00;;;14.10;79.00;;;;;;5089416;28;20197;-74
2021/05/02 11:50:55;;;;;;;5.18;1.30;;;14.10;78.70;;;;;;5090796;28;20639;-74
2021/05/02 11:53:49;;;;;;;1.40;1.30;;;14.10;78.90;;;;;;5090790;28;20177;-76
2021/05/02 11:56:20;;;;;;;1.70;1.23;;;14.10;79.00;;;;;;5058548;28;20633;-76
2021/05/02 11:58:48;;;;;;;1.45;1.10;;;14.20;78.50;;;;;;5103368;28;20192;-75
2021/05/02 12:01:16;;;;;;;1.40;1.30;;;14.10;78.40;;;;;;5096376;28;20272;-75
2021/05/02 12:03:45;;;;;;;1.30;1.02;;;14.10;78.60;;;;;;5090979;28;20728;-75
2021/05/02 12:06:24;;;;;;;1.73;1.20;;;14.10;78.20;;;;;;5092860;28;20194;-74
2021/05/02 12:08:50;;;;;;;2.47;1.30;;;14.10;78.70;;;;;;5109539;28;20196;-74
2021/05/02 12:11:16;;;;;;;1.98;1.30;;;14.10;78.10;;;;;;5105176;28;20637;-73
2021/05/02 12:13:45;;;;;;;2.58;2.22;;;14.10;78.60;;;;;;5103778;28;20190;-73
2021/05/02 12:16:13;;;;;;;1.73;1.58;;;14.10;79.00;;;;;;5111017;28;20197;-74
2021/05/02 12:18:49;;;;;;;2.35;1.00;;;14.10;79.00;;;;;;5092930;28;20193;-75
2021/05/02 12:21:22;;;;;;;2.03;1.08;;;14.10;79.50;;;;;;5105649;28;20191;-74
2021/05/02 12:23:48;;;;;;;2.85;1.20;;;14.10;79.70;;;;;;5102726;28;20243;-73
2021/05/02 12:26:17;;;;;;;1.42;1.33;;;14.10;79.70;;;;;;5110406;28;20637;-76
2021/05/02 12:28:44;;;;;;;1.30;0.95;;;14.10;79.80;;;;;;5103576;28;20189;-76
2021/05/02 12:31:13;;;;;;;1.63;1.08;;;14.20;80.00;;;;;;5106462;28;20250;-75
2021/05/02 12:33:40;;;;;;;2.05;1.30;;;14.20;80.10;;;;;;5094748;28;20197;-74
2021/05/02 12:36:09;;;;;;;1.77;1.30;;;14.20;79.70;;;;;;5102808;28;20197;-75
2021/05/02 12:38:36;;;;;;;1.40;1.30;;;14.30;79.70;;;;;;5104288;28;20201;-73
2021/05/02 12:41:03;;;;;;;1.42;1.13;;;14.30;79.80;;;;;;5097910;28;20197;-73
2021/05/02 12:43:31;;;;;;;1.60;1.23;;;14.30;79.60;;;;;;5091957;28;20212;-73
2021/05/02 12:45:58;;;;;;;1.67;1.10;;;14.30;79.40;;;;;;5105076;28;20234;-73
2021/05/02 12:48:30;;;;;;;3.95;1.40;;;14.30;79.10;;;;;;5110643;28;20644;-74
2021/05/02 12:50:58;;;;;;;1.50;1.40;;;14.30;79.10;;;;;;5108220;28;20196;-74
2021/05/02 12:53:41;;;;;;;1.48;1.00;;;14.30;79.00;;;;;;5091532;28;20263;-74